createdAt,value
2019-04-26T00:00:10.198Z,98.80
2019-04-26T00:02:47.789Z,99.40
2019-04-26T00:05:18.513Z,99.80
2019-04-26T00:07:48.378Z,99.90
2019-04-26T00:10:27.530Z,99.90
2019-04-26T00:13:25.038Z,99.90
2019-04-26T00:16:00.502Z,99.90
2019-04-26T00:18:39.430Z,99.90
2019-04-26T00:21:07.708Z,99.90
2019-04-26T00:23:37.048Z,99.90
2019-04-26T00:26:06.263Z,99.90
2019-04-26T00:28:35.142Z,99.90
2019-04-26T00:31:04.071Z,99.90
2019-04-26T00:33:33.132Z,99.90
2019-04-26T00:36:04.037Z,99.90
2019-04-26T00:38:32.805Z,99.90
2019-04-26T00:41:01.883Z,99.90
2019-04-26T00:43:32.221Z,99.90
2019-04-26T00:46:04.014Z,99.90
2019-04-26T00:48:33.610Z,99.90
2019-04-26T00:51:03.412Z,99.90
2019-04-26T00:53:34.418Z,99.90
2019-04-26T00:56:05.507Z,99.90
2019-04-26T00:58:35.155Z,99.90
2019-04-26T01:01:05.027Z,99.90
2019-04-26T01:03:44.833Z,99.90
2019-04-26T01:06:15.989Z,99.90
2019-04-26T01:08:45.651Z,99.90
2019-04-26T01:11:16.209Z,99.90
2019-04-26T01:13:44.926Z,99.90
2019-04-26T01:16:13.876Z,99.90
2019-04-26T01:18:44.966Z,99.90
2019-04-26T01:21:17.238Z,99.90
2019-04-26T01:23:49.290Z,99.90
2019-04-26T01:26:27.410Z,99.90
2019-04-26T01:29:01.580Z,99.90
2019-04-26T01:31:34.188Z,99.90
2019-04-26T01:34:03.393Z,99.90
2019-04-26T01:36:33.850Z,99.90
2019-04-26T01:39:13.943Z,99.90
2019-04-26T01:41:47.396Z,99.90
2019-04-26T01:44:24.616Z,99.90
2019-04-26T01:46:54.321Z,99.90
2019-04-26T01:49:24.381Z,99.90
2019-04-26T01:52:01.283Z,99.90
2019-04-26T01:54:35.973Z,99.90
2019-04-26T01:57:06.716Z,99.90
2019-04-26T01:59:39.722Z,99.90
2019-04-26T02:02:16.762Z,99.90
2019-04-26T02:04:48.736Z,99.90
2019-04-26T02:07:36.978Z,99.90
2019-04-26T02:10:08.359Z,99.90
2019-04-26T02:12:38.299Z,99.90
2019-04-26T02:15:07.312Z,99.90
2019-04-26T02:17:36.700Z,99.90
2019-04-26T02:20:06.517Z,99.90
2019-04-26T02:22:45.658Z,99.90
2019-04-26T02:25:15.436Z,99.90
2019-04-26T02:27:44.231Z,99.90
2019-04-26T02:30:13.131Z,99.90
2019-04-26T02:32:41.911Z,99.90
2019-04-26T02:35:11.262Z,99.90
2019-04-26T02:37:40.083Z,99.90
2019-04-26T02:40:13.429Z,99.90
2019-04-26T02:42:43.656Z,99.90
2019-04-26T02:45:47.858Z,99.90
2019-04-26T02:48:41.144Z,99.90
2019-04-26T02:51:16.192Z,99.90
2019-04-26T02:53:50.624Z,99.90
2019-04-26T02:56:43.396Z,99.90
2019-04-26T02:59:34.537Z,99.90
2019-04-26T03:02:06.971Z,99.90
2019-04-26T03:04:39.460Z,99.90
2019-04-26T03:07:22.041Z,99.90
2019-04-26T03:09:52.745Z,99.90
2019-04-26T03:12:25.121Z,99.90
2019-04-26T03:15:14.142Z,99.90
2019-04-26T03:17:54.637Z,99.90
2019-04-26T03:20:32.561Z,99.90
2019-04-26T03:23:13.660Z,99.90
2019-04-26T03:26:03.977Z,99.90
2019-04-26T03:28:54.996Z,99.90
2019-04-26T03:31:54.978Z,99.90
2019-04-26T03:34:42.308Z,99.90
2019-04-26T03:38:07.240Z,99.90
2019-04-26T03:40:55.182Z,99.90
2019-04-26T03:43:47.200Z,99.90
2019-04-26T03:46:47.221Z,99.90
2019-04-26T03:49:45.679Z,99.90
2019-04-26T03:52:56.899Z,99.90
2019-04-26T03:56:12.481Z,99.90
2019-04-26T03:59:03.493Z,99.90
2019-04-26T04:01:40.764Z,99.90
2019-04-26T04:04:29.530Z,99.90
2019-04-26T04:07:04.656Z,99.90
2019-04-26T04:09:35.856Z,99.90
2019-04-26T04:12:13.096Z,99.90
2019-04-26T04:14:57.335Z,99.90
2019-04-26T04:17:46.145Z,99.90
2019-04-26T04:21:00.867Z,99.90
2019-04-26T04:24:01.307Z,99.90
2019-04-26T04:26:49.469Z,99.90
2019-04-26T04:29:54.520Z,99.90
2019-04-26T04:32:40.278Z,99.90
2019-04-26T04:35:11.756Z,99.90
2019-04-26T04:38:04.231Z,99.90
2019-04-26T04:40:43.156Z,99.90
2019-04-26T04:43:31.247Z,99.90
2019-04-26T04:46:31.178Z,99.90
2019-04-26T04:49:19.851Z,99.90
2019-04-26T04:52:06.925Z,99.90
2019-04-26T04:54:42.782Z,99.90
2019-04-26T04:57:41.899Z,99.90
2019-04-26T05:00:45.106Z,99.90
2019-04-26T05:03:34.091Z,99.90
2019-04-26T05:06:33.874Z,99.90
2019-04-26T05:09:12.920Z,99.90
2019-04-26T05:12:23.145Z,99.90
2019-04-26T05:15:13.566Z,99.90
2019-04-26T05:18:10.799Z,99.90
2019-04-26T05:20:48.766Z,99.90
2019-04-26T05:23:32.238Z,99.90
2019-04-26T05:27:13.475Z,99.90
2019-04-26T05:30:00.228Z,99.90
2019-04-26T05:32:50.595Z,99.90
2019-04-26T05:35:42.584Z,99.90
2019-04-26T05:38:35.963Z,99.90
2019-04-26T05:41:23.973Z,99.90
2019-04-26T05:44:17.992Z,99.90
2019-04-26T05:47:23.265Z,99.90
2019-04-26T05:50:50.856Z,99.90
2019-04-26T05:54:17.163Z,99.90
2019-04-26T05:57:02.657Z,99.90
2019-04-26T05:59:50.424Z,99.90
2019-04-26T06:03:14.677Z,99.90
2019-04-26T06:06:13.971Z,99.90
2019-04-26T06:09:40.034Z,99.90
2019-04-26T06:12:28.580Z,99.90
2019-04-26T06:15:18.064Z,99.90
2019-04-26T06:18:09.303Z,99.90
2019-04-26T06:20:55.874Z,99.90
2019-04-26T06:23:39.629Z,99.90
2019-04-26T06:26:36.966Z,99.90
2019-04-26T06:29:11.931Z,99.90
2019-04-26T06:31:51.054Z,99.90
2019-04-26T06:34:55.096Z,99.90
2019-04-26T06:37:38.151Z,99.90
2019-04-26T06:40:21.387Z,99.90
2019-04-26T06:43:15.324Z,99.90
2019-04-26T06:46:19.699Z,99.90
2019-04-26T06:49:26.410Z,99.90
2019-04-26T06:52:05.175Z,99.90
2019-04-26T06:54:51.395Z,99.90
2019-04-26T06:58:01.118Z,99.90
2019-04-26T07:00:43.152Z,99.90
2019-04-26T07:03:41.839Z,99.90
2019-04-26T07:06:12.502Z,99.90
2019-04-26T07:08:57.559Z,99.90
2019-04-26T07:12:18.664Z,99.90
2019-04-26T07:15:08.027Z,99.90
2019-04-26T07:18:17.509Z,99.90
2019-04-26T07:21:05.504Z,99.90
2019-04-26T07:24:14.001Z,99.90
2019-04-26T07:27:05.142Z,99.90
2019-04-26T07:30:01.593Z,99.90
2019-04-26T07:32:57.194Z,99.90
2019-04-26T07:35:34.100Z,99.90
2019-04-26T07:38:20.006Z,99.90
2019-04-26T07:41:16.394Z,99.90
2019-04-26T07:44:02.744Z,99.90
2019-04-26T07:47:09.520Z,99.90
2019-04-26T07:50:36.138Z,99.90
2019-04-26T07:53:46.927Z,99.90
2019-04-26T07:56:30.372Z,99.90
2019-04-26T07:59:46.156Z,99.90
2019-04-26T08:02:54.792Z,99.90
2019-04-26T08:05:39.776Z,99.90
2019-04-26T08:08:10.937Z,98.50
2019-04-26T08:10:43.030Z,97.80
2019-04-26T08:13:15.666Z,97.20
2019-04-26T08:16:19.532Z,98.60
2019-04-26T08:18:56.688Z,98.20
2019-04-26T08:21:33.435Z,98.30
2019-04-26T08:24:20.119Z,98.80
2019-04-26T08:27:18.637Z,98.20
2019-04-26T08:29:44.218Z,98.00
2019-04-26T08:32:21.894Z,97.30
2019-04-26T08:35:02.423Z,98.80
2019-04-26T08:38:02.034Z,96.50
2019-04-26T08:40:33.226Z,97.60
2019-04-26T08:43:20.251Z,96.20
2019-04-26T08:46:13.090Z,96.40
2019-04-26T08:48:49.206Z,96.10
2019-04-26T08:51:20.640Z,95.40
2019-04-26T08:53:52.507Z,95.30
2019-04-26T08:56:26.010Z,94.60
2019-04-26T08:59:00.023Z,94.40
2019-04-26T09:01:37.743Z,94.50
2019-04-26T09:04:18.421Z,94.10
2019-04-26T09:07:15.330Z,94.90
2019-04-26T09:09:56.716Z,93.10
2019-04-26T09:12:23.256Z,93.10
2019-04-26T09:14:55.357Z,92.80
2019-04-26T09:17:27.732Z,91.20
2019-04-26T09:19:58.005Z,91.40
2019-04-26T09:22:37.334Z,91.80
2019-04-26T09:25:18.819Z,91.70
2019-04-26T09:27:53.504Z,92.30
2019-04-26T09:30:38.549Z,92.20
2019-04-26T09:33:15.627Z,93.50
2019-04-26T09:35:44.279Z,94.20
2019-04-26T09:38:13.284Z,94.90
2019-04-26T09:40:41.919Z,95.50
2019-04-26T09:43:19.134Z,95.70
2019-04-26T09:46:19.250Z,95.40
2019-04-26T09:49:07.000Z,95.40
2019-04-26T09:51:39.035Z,94.70
2019-04-26T09:54:06.788Z,95.70
2019-04-26T09:56:35.470Z,95.40
2019-04-26T09:59:05.715Z,96.60
2019-04-26T10:01:34.927Z,96.70
2019-04-26T10:04:03.583Z,96.60
2019-04-26T10:06:32.242Z,96.70
2019-04-26T10:09:00.920Z,95.80
2019-04-26T10:11:35.594Z,96.40
2019-04-26T10:14:14.066Z,96.50
2019-04-26T10:17:15.743Z,95.80
2019-04-26T10:19:49.178Z,95.80
2019-04-26T10:22:17.875Z,95.10
2019-04-26T10:24:46.605Z,94.90
2019-04-26T10:27:24.381Z,95.00
2019-04-26T10:29:56.609Z,94.00
2019-04-26T10:32:26.393Z,94.00
2019-04-26T10:34:54.643Z,93.90
2019-04-26T10:37:23.364Z,94.30
2019-04-26T10:39:52.674Z,95.40
2019-04-26T10:42:21.522Z,94.40
2019-04-26T10:44:50.166Z,94.60
2019-04-26T10:47:18.819Z,95.00
2019-04-26T10:49:48.395Z,95.70
2019-04-26T10:52:35.341Z,96.90
2019-04-26T10:55:19.726Z,97.00
2019-04-26T10:57:49.142Z,96.50
2019-04-26T11:00:28.216Z,95.60
2019-04-26T11:03:00.083Z,94.70
2019-04-26T11:05:27.720Z,94.50
2019-04-26T11:07:56.423Z,94.80
2019-04-26T11:10:25.451Z,94.80
2019-04-26T11:12:54.108Z,94.40
2019-04-26T11:15:23.290Z,94.00
2019-04-26T11:17:52.338Z,94.10
2019-04-26T11:20:21.087Z,94.30
2019-04-26T11:22:49.815Z,94.30
2019-04-26T11:25:18.510Z,94.40
2019-04-26T11:27:48.685Z,94.60
2019-04-26T11:30:21.069Z,93.30
2019-04-26T11:32:48.109Z,93.80
2019-04-26T11:35:16.832Z,94.20
2019-04-26T11:37:46.404Z,93.90
2019-04-26T11:40:15.901Z,94.00
2019-04-26T11:42:45.748Z,94.80
2019-04-26T11:45:16.106Z,95.60
2019-04-26T11:47:55.426Z,94.70
2019-04-26T11:50:16.470Z,95.10
2019-04-26T11:52:46.199Z,95.70
2019-04-26T11:55:15.212Z,94.10
2019-04-26T11:57:47.388Z,95.50
2019-04-26T12:00:22.819Z,95.10
2019-04-26T12:02:52.279Z,95.30
2019-04-26T12:05:29.550Z,95.50
2019-04-26T12:08:02.422Z,95.40
2019-04-26T12:10:31.063Z,95.50
2019-04-26T12:13:05.550Z,95.20
2019-04-26T12:15:30.785Z,95.60
2019-04-26T12:17:59.849Z,95.60
2019-04-26T12:20:28.590Z,95.10
2019-04-26T12:22:57.228Z,95.50
2019-04-26T12:25:25.871Z,94.40
2019-04-26T12:27:54.628Z,94.30
2019-04-26T12:30:26.610Z,94.90
2019-04-26T12:32:53.826Z,94.20
2019-04-26T12:35:22.455Z,94.40
2019-04-26T12:37:54.814Z,94.20
2019-04-26T12:40:21.954Z,94.50
2019-04-26T12:42:50.687Z,94.60
2019-04-26T12:45:37.242Z,94.50
2019-04-26T12:48:08.167Z,95.00
2019-04-26T12:50:38.064Z,94.30
2019-04-26T12:53:07.027Z,95.20
2019-04-26T12:55:36.095Z,95.30
2019-04-26T12:58:05.457Z,95.00
2019-04-26T13:00:37.459Z,94.80
2019-04-26T13:03:19.446Z,94.80
2019-04-26T13:05:37.547Z,95.10
2019-04-26T13:08:06.804Z,94.50
2019-04-26T13:10:55.954Z,94.50
2019-04-26T13:13:51.073Z,94.50
2019-04-26T13:16:43.180Z,94.40
2019-04-26T13:19:11.948Z,95.00
2019-04-26T13:21:40.583Z,94.20
2019-04-26T13:24:09.340Z,93.90
2019-04-26T13:26:38.078Z,94.60
2019-04-26T13:29:07.050Z,93.80
2019-04-26T13:31:36.247Z,93.70
2019-04-26T13:34:05.679Z,94.00
2019-04-26T13:36:34.391Z,94.30
2019-04-26T13:39:03.962Z,94.10
2019-04-26T13:41:34.976Z,94.30
2019-04-26T13:44:05.754Z,93.80
2019-04-26T13:47:03.772Z,93.80
2019-04-26T13:49:37.283Z,94.40
2019-04-26T13:52:05.955Z,95.00
2019-04-26T13:54:34.739Z,95.40
2019-04-26T13:57:06.102Z,95.80
2019-04-26T13:59:33.931Z,95.80
2019-04-26T14:02:11.260Z,95.80
2019-04-26T14:04:37.174Z,95.70
2019-04-26T14:07:04.738Z,94.50
2019-04-26T14:09:33.857Z,94.70
2019-04-26T14:12:17.661Z,95.10
2019-04-26T14:14:34.220Z,95.30
2019-04-26T14:17:04.186Z,94.30
2019-04-26T14:19:32.954Z,94.50
2019-04-26T14:22:03.265Z,93.70
2019-04-26T14:24:45.947Z,94.60
2019-04-26T14:27:17.636Z,94.30
2019-04-26T14:29:46.525Z,94.10
2019-04-26T14:32:15.705Z,93.90
2019-04-26T14:34:45.282Z,93.80
2019-04-26T14:37:15.480Z,93.40
2019-04-26T14:39:50.835Z,93.40
2019-04-26T14:42:15.058Z,92.60
2019-04-26T14:44:49.440Z,92.50
2019-04-26T14:47:17.782Z,92.70
2019-04-26T14:49:44.635Z,92.90
2019-04-26T14:52:13.314Z,93.00
2019-04-26T14:54:45.925Z,93.10
2019-04-26T14:57:19.943Z,93.40
2019-04-26T14:59:47.038Z,93.90
2019-04-26T15:02:33.208Z,94.30
2019-04-26T15:05:19.506Z,94.20
2019-04-26T15:07:51.097Z,94.60
2019-04-26T15:10:20.778Z,94.20
2019-04-26T15:12:58.651Z,94.70
2019-04-26T15:15:19.987Z,94.80
2019-04-26T15:17:48.694Z,94.60
2019-04-26T15:20:20.918Z,94.70
2019-04-26T15:22:50.109Z,95.50
2019-04-26T15:25:19.056Z,95.90
2019-04-26T15:27:47.804Z,95.80
2019-04-26T15:30:16.673Z,95.70
2019-04-26T15:32:45.441Z,95.70
2019-04-26T15:35:17.641Z,95.80
2019-04-26T15:37:44.649Z,96.00
2019-04-26T15:40:27.390Z,96.20
2019-04-26T15:43:14.217Z,96.40
2019-04-26T15:45:49.173Z,96.50
2019-04-26T15:48:46.396Z,96.50
2019-04-26T15:51:16.362Z,96.60
2019-04-26T15:53:48.731Z,96.80
2019-04-26T15:56:17.735Z,97.00
2019-04-26T15:58:48.889Z,96.50
2019-04-26T16:01:16.809Z,95.80
2019-04-26T16:03:45.553Z,95.50
2019-04-26T16:06:14.369Z,95.60
2019-04-26T16:08:43.955Z,95.90
2019-04-26T16:11:13.037Z,96.00
2019-04-26T16:13:45.260Z,96.10
2019-04-26T16:16:12.717Z,96.50
2019-04-26T16:18:42.999Z,96.50
2019-04-26T16:21:17.885Z,96.60
2019-04-26T16:23:51.034Z,97.30
2019-04-26T16:26:15.355Z,97.60
2019-04-26T16:29:09.256Z,97.40
2019-04-26T16:31:47.140Z,97.80
2019-04-26T16:34:16.851Z,98.10
2019-04-26T16:36:45.511Z,98.30
2019-04-26T16:39:14.860Z,98.50
2019-04-26T16:41:43.612Z,98.20
2019-04-26T16:44:13.084Z,98.40
2019-04-26T16:46:43.931Z,98.50
2019-04-26T16:49:14.136Z,98.90
2019-04-26T16:51:43.660Z,99.20
2019-04-26T16:54:21.057Z,99.40
2019-04-26T16:56:43.909Z,99.70
2019-04-26T16:59:21.390Z,99.90
2019-04-26T17:01:47.408Z,99.90
2019-04-26T17:04:20.040Z,99.90
2019-04-26T17:06:46.450Z,99.90
2019-04-26T17:09:15.539Z,99.90
2019-04-26T17:11:44.251Z,99.90
2019-04-26T17:14:13.331Z,99.90
2019-04-26T17:16:44.376Z,99.90
2019-04-26T17:19:13.786Z,99.90
2019-04-26T17:21:49.231Z,99.90
2019-04-26T17:24:38.128Z,99.90
2019-04-26T17:27:10.114Z,99.90
2019-04-26T17:29:40.124Z,99.90
2019-04-26T17:32:13.997Z,99.90
2019-04-26T17:34:40.490Z,99.90
2019-04-26T17:37:12.785Z,99.90
2019-04-26T17:39:40.777Z,99.90
2019-04-26T17:42:10.532Z,99.90
2019-04-26T17:44:41.114Z,99.90
2019-04-26T17:47:10.572Z,99.90
2019-04-26T17:49:42.309Z,99.90
2019-04-26T17:52:11.548Z,99.90
2019-04-26T17:54:46.696Z,99.90
2019-04-26T17:57:14.316Z,99.90
2019-04-26T17:59:47.613Z,99.90
2019-04-26T18:02:31.545Z,99.90
2019-04-26T18:04:44.044Z,99.90
2019-04-26T18:07:36.308Z,99.90
2019-04-26T18:09:46.536Z,99.90
2019-04-26T18:12:13.764Z,99.90
2019-04-26T18:14:42.440Z,99.90
2019-04-26T18:17:23.214Z,99.90
2019-04-26T18:20:13.047Z,99.90
2019-04-26T18:22:46.431Z,99.90
2019-04-26T18:25:15.314Z,99.90
2019-04-26T18:27:44.120Z,99.90
2019-04-26T18:30:14.330Z,99.90
2019-04-26T18:32:47.694Z,99.90
2019-04-26T18:35:16.862Z,99.90
2019-04-26T18:37:44.498Z,99.90
2019-04-26T18:40:13.421Z,99.90
2019-04-26T18:42:43.348Z,99.90
2019-04-26T18:45:13.940Z,99.90
2019-04-26T18:47:43.715Z,99.90
2019-04-26T18:50:13.703Z,99.90
2019-04-26T18:52:56.461Z,99.90
2019-04-26T18:55:29.930Z,99.90
2019-04-26T18:58:01.462Z,99.90
2019-04-26T19:00:33.645Z,99.90
2019-04-26T19:03:02.967Z,99.90
2019-04-26T19:05:33.717Z,99.90
2019-04-26T19:08:02.656Z,99.90
2019-04-26T19:10:34.106Z,99.90
2019-04-26T19:13:09.537Z,99.90
2019-04-26T19:15:47.580Z,99.90
2019-04-26T19:18:33.882Z,99.90
2019-04-26T19:21:18.036Z,99.90
2019-04-26T19:23:46.863Z,99.90
2019-04-26T19:26:15.655Z,99.90
2019-04-26T19:28:44.571Z,99.90
2019-04-26T19:31:13.415Z,99.90
2019-04-26T19:33:42.774Z,99.90
2019-04-26T19:36:13.759Z,99.90
2019-04-26T19:38:45.208Z,99.90
2019-04-26T19:41:13.179Z,99.90
2019-04-26T19:43:43.551Z,99.90
2019-04-26T19:46:23.336Z,99.90
2019-04-26T19:49:06.444Z,99.90
2019-04-26T19:51:47.878Z,99.90
2019-04-26T19:54:38.115Z,99.90
2019-04-26T19:57:10.289Z,99.90
2019-04-26T19:59:39.402Z,99.90
2019-04-26T20:02:12.784Z,99.90
2019-04-26T20:04:41.944Z,99.90
2019-04-26T20:07:10.762Z,99.90
2019-04-26T20:09:39.641Z,99.90
2019-04-26T20:12:08.455Z,99.90
2019-04-26T20:14:47.124Z,99.90
2019-04-26T20:17:07.808Z,99.90
2019-04-26T20:19:37.515Z,99.90
2019-04-26T20:22:06.959Z,99.90
2019-04-26T20:24:36.064Z,99.90
2019-04-26T20:27:04.955Z,99.90
2019-04-26T20:29:33.735Z,99.90
2019-04-26T20:32:09.908Z,99.90
2019-04-26T20:34:39.371Z,99.90
2019-04-26T20:37:08.431Z,99.90
2019-04-26T20:39:37.104Z,99.90
2019-04-26T20:42:06.029Z,99.90
2019-04-26T20:44:48.130Z,99.90
2019-04-26T20:47:07.739Z,99.90
2019-04-26T20:49:47.405Z,99.90
2019-04-26T20:52:06.448Z,99.90
2019-04-26T20:54:35.195Z,99.90
2019-04-26T20:57:04.920Z,99.90
2019-04-26T20:59:33.700Z,99.90
2019-04-26T21:02:07.895Z,99.90
2019-04-26T21:04:38.115Z,99.90
2019-04-26T21:07:06.788Z,99.90
2019-04-26T21:09:36.371Z,99.90
2019-04-26T21:12:07.939Z,99.90
2019-04-26T21:14:37.298Z,99.90
2019-04-26T21:17:06.473Z,99.90
2019-04-26T21:19:35.543Z,99.90
2019-04-26T21:22:04.883Z,99.90
2019-04-26T21:24:37.288Z,99.90
2019-04-26T21:27:33.281Z,99.90
2019-04-26T21:30:14.331Z,99.90
2019-04-26T21:33:03.330Z,99.90
2019-04-26T21:35:46.919Z,99.90
2019-04-26T21:38:39.478Z,99.90
2019-04-26T21:41:14.009Z,99.90
2019-04-26T21:43:43.834Z,99.90
2019-04-26T21:46:18.442Z,99.90
2019-04-26T21:48:44.598Z,99.90
2019-04-26T21:51:16.134Z,99.90
2019-04-26T21:56:07.501Z,99.90
2019-04-26T21:58:34.526Z,99.90
2019-04-26T22:01:10.961Z,99.90
2019-04-26T22:03:39.930Z,99.90
2019-04-26T22:06:08.776Z,99.90
2019-04-26T22:08:41.359Z,99.90
2019-04-26T22:11:13.927Z,99.90
2019-04-26T22:13:52.245Z,99.90
2019-04-26T22:16:34.089Z,99.90
2019-04-26T22:19:08.711Z,99.90
2019-04-26T22:21:44.227Z,99.90
2019-04-26T22:24:18.603Z,99.90
2019-04-26T22:26:48.215Z,99.90
2019-04-26T22:29:17.463Z,99.90
2019-04-26T22:31:46.099Z,99.90
2019-04-26T22:34:15.083Z,99.90
2019-04-26T22:36:43.986Z,99.90
2019-04-26T22:39:17.506Z,99.90
2019-04-26T22:41:46.153Z,99.90
2019-04-26T22:44:34.800Z,99.90
2019-04-26T22:47:18.934Z,99.90
2019-04-26T22:49:47.567Z,99.90
2019-04-26T22:52:16.651Z,99.90
2019-04-26T22:54:46.752Z,99.90
2019-04-26T22:57:16.434Z,99.90
2019-04-26T22:59:49.949Z,99.90
2019-04-26T23:02:18.298Z,99.90
2019-04-26T23:04:47.457Z,99.90
2019-04-26T23:07:18.441Z,99.90
2019-04-26T23:09:51.969Z,99.90
2019-04-26T23:12:28.106Z,99.90
2019-04-26T23:15:06.219Z,99.90
2019-04-26T23:17:52.677Z,99.90
2019-04-26T23:20:29.145Z,99.90
2019-04-26T23:23:00.502Z,99.90
2019-04-26T23:25:31.239Z,99.90
2019-04-26T23:27:58.450Z,99.90
2019-04-26T23:30:27.671Z,99.90
2019-04-26T23:32:57.914Z,99.90
2019-04-26T23:35:26.591Z,99.90
2019-04-26T23:37:56.516Z,99.90
2019-04-26T23:40:28.864Z,99.90
2019-04-26T23:42:56.026Z,99.90
2019-04-26T23:45:24.693Z,99.90
2019-04-26T23:47:53.339Z,99.90
2019-04-26T23:50:25.523Z,99.90
2019-04-26T23:52:53.045Z,99.90
2019-04-26T23:55:23.607Z,99.90
